グラスゴー の空港の天気 - METARとTAF

グラスゴー国際空港 ( EGPF / GLA ) - イギリス グラスゴー
飛行場実況気象(Metar)
観測時間01/16 19:20 GMT (01/16 19:20 UTC)
風向・風速西南西 5m/s
視程10km以上
天気現象
全天を覆う雲 雲底高度 730m
気温7℃
湿度76%
気圧1031hPa
METAREGPF 161920Z AUTO 25009KT 9999 OVC024 07/03 Q1031
過去の天気等 Google飛行場航空写真 Wunderground天気予報

過去48時間のMETAR

飛行場予報(TAF)
発表時間: 1/16 17:01 GMT (1/16 17:01 UTC)
予報対象時間: 16日18時 GMT ~ 17日18時 GMT
風向・風速西南西 5m/s
視程10km以上
全天の4割程度の雲 雲底高度 910m
17日4時 GMT ~ 17日9時 GMT に 確率 30% で一時的に
全天の8割程度の雲 雲底高度 430m
17日15時 GMT ~ 17日18時 GMT に徐々に
風向・風速不定 2m/s
17日15時 GMT ~ 17日18時 GMT に 確率 30% で一時的に
視程7000m
TAF EGPF 161701Z 1618/1718 25010KT 9999 SCT030
PROB30 TEMPO 1704/1709 BKN014
BECMG 1715/1718 VRB03KT
PROB30 TEMPO 1715/1718 7000